Time;durP1;ratioP1;P1;durP2;ratioP2;P2;SDS_P1;SDS_P2;PMS_P1;PMS_P2;Temp;Humidity;BMP_temperature;BMP_pressure;BME280_temperature;BME280_humidity;BME280_pressure;Samples;Min_cycle;Max_cycle;Signal;HPM_P1;HPM_P2
2021/08/20 00:00:43;;;;;;;5.40;4.90;;;;;;;17.28;73.54;99431.38;4850805;29;20255;-88
2021/08/20 00:03:10;;;;;;;5.57;4.70;;;;;;;17.32;73.52;99436.00;4881196;29;20300;-88
2021/08/20 00:05:37;;;;;;;6.20;5.00;;;;;;;17.28;73.57;99439.50;4865863;29;20232;-87
2021/08/20 00:08:04;;;;;;;5.47;4.70;;;;;;;17.32;73.46;99440.59;4881364;29;20239;-88
2021/08/20 00:10:31;;;;;;;6.20;4.70;;;;;;;17.33;73.32;99440.34;4866436;29;20231;-89
2021/08/20 00:12:58;;;;;;;5.47;4.57;;;;;;;17.28;73.58;99428.69;4881863;29;20263;-87
2021/08/20 00:15:25;;;;;;;5.37;4.37;;;;;;;17.37;73.70;99441.44;4897185;29;20235;-88
2021/08/20 00:17:51;;;;;;;5.37;4.70;;;;;;;17.34;73.47;99433.84;4866492;29;20628;-88
2021/08/20 00:20:19;;;;;;;5.63;5.03;;;;;;;17.35;73.59;99438.19;4881281;29;20282;-88
2021/08/20 00:22:46;;;;;;;5.40;4.90;;;;;;;17.37;73.50;99432.50;4881520;29;20240;-88
2021/08/20 00:25:13;;;;;;;5.03;4.40;;;;;;;17.39;73.50;99435.75;4865837;29;20595;-88
2021/08/20 00:27:40;;;;;;;5.57;4.50;;;;;;;17.41;73.44;99442.50;4881279;29;20235;-88
2021/08/20 00:30:09;;;;;;;4.93;4.43;;;;;;;17.35;73.17;99446.31;4865848;29;20243;-87
2021/08/20 00:32:37;;;;;;;6.27;4.60;;;;;;;17.31;73.38;99439.78;4865918;29;20628;-88
2021/08/20 00:35:05;;;;;;;5.30;4.67;;;;;;;17.29;73.52;99447.38;4865651;29;20235;-89
2021/08/20 00:37:33;;;;;;;5.83;4.43;;;;;;;17.29;73.96;99455.50;4897173;29;20239;-88
2021/08/20 00:40:00;;;;;;;5.63;4.63;;;;;;;17.25;74.45;99457.13;4866218;29;20577;-87
2021/08/20 00:42:27;;;;;;;4.97;4.53;;;;;;;17.10;74.63;99438.13;4881140;29;20228;-88
2021/08/20 00:44:53;;;;;;;5.27;4.77;;;;;;;17.12;74.85;99453.00;4865644;29;20260;-89
2021/08/20 00:47:20;;;;;;;5.90;4.60;;;;;;;17.01;75.08;99435.13;4881370;29;20529;-88
2021/08/20 00:49:48;;;;;;;5.53;4.80;;;;;;;16.94;75.32;99436.44;4881139;29;20559;-89
2021/08/20 00:52:15;;;;;;;5.23;4.73;;;;;;;17.00;75.55;99448.91;4865209;29;20239;-88
2021/08/20 00:54:43;;;;;;;5.50;5.00;;;;;;;17.01;75.53;99439.72;4881127;29;20553;-89
2021/08/20 00:57:09;;;;;;;6.43;5.77;;;;;;;17.00;75.67;99447.03;4865825;29;20259;-87
2021/08/20 00:59:37;;;;;;;5.87;5.23;;;;;;;17.02;75.64;99438.66;4880845;29;20588;-90
2021/08/20 01:02:05;;;;;;;5.50;4.90;;;;;;;17.06;75.68;99439.75;4880612;29;20232;-89
2021/08/20 01:04:35;;;;;;;6.93;5.37;;;;;;;17.00;75.67;99430.78;4881019;29;20310;-88
2021/08/20 01:07:02;;;;;;;6.13;5.53;;;;;;;17.05;75.70;99444.34;4880928;29;20228;-88
2021/08/20 01:09:29;;;;;;;4.97;4.57;;;;;;;17.05;75.94;99435.41;4865441;29;20271;-89
2021/08/20 01:11:56;;;;;;;7.57;4.50;;;;;;;17.03;76.07;99432.94;4881022;29;20235;-89
2021/08/20 01:14:33;;;;;;;5.97;4.77;;;;;;;17.08;75.61;99437.56;4865081;29;20646;-89
2021/08/20 01:17:02;;;;;;;6.60;4.70;;;;;;;17.02;75.47;99428.63;4880962;29;20655;-88
2021/08/20 01:19:34;;;;;;;6.63;4.80;;;;;;;17.02;75.49;99433.25;4865306;29;20239;-88
2021/08/20 01:22:05;;;;;;;6.67;4.50;;;;;;;16.98;75.90;99426.72;4865401;29;20287;-89
2021/08/20 01:24:33;;;;;;;6.03;4.17;;;;;;;17.00;75.77;99424.56;4880443;29;20238;-87
2021/08/20 01:27:02;;;;;;;5.30;4.80;;;;;;;16.94;75.75;99414.78;4880681;29;20242;-88
2021/08/20 01:29:32;;;;;;;6.03;4.77;;;;;;;17.07;75.88;99438.66;4880663;29;20231;-88
2021/08/20 01:32:00;;;;;;;6.23;5.00;;;;;;;17.05;75.69;99432.69;4865545;29;20264;-89
2021/08/20 01:34:27;;;;;;;4.77;4.27;;;;;;;17.01;75.80;99416.19;4895155;29;20242;-89
2021/08/20 01:36:55;;;;;;;4.97;4.47;;;;;;;16.97;75.77;99415.09;4865559;29;20239;-87
2021/08/20 01:39:22;;;;;;;5.17;4.67;;;;;;;16.86;75.95;99402.59;4880835;29;20322;-88
2021/08/20 01:41:49;;;;;;;5.07;4.10;;;;;;;17.03;76.06;99424.03;4865012;29;20291;-89
2021/08/20 01:44:17;;;;;;;6.17;4.70;;;;;;;17.05;75.97;99430.81;4880118;29;20252;-89
2021/08/20 01:46:44;;;;;;;6.37;4.87;;;;;;;16.97;75.87;99425.91;4867464;29;20235;-89
2021/08/20 01:49:10;;;;;;;5.87;4.83;;;;;;;16.94;76.15;99422.91;4884318;29;20232;-89
2021/08/20 01:51:38;;;;;;;5.50;4.20;;;;;;;16.92;76.29;99428.59;4884240;29;20245;-88
2021/08/20 01:54:04;;;;;;;5.27;4.67;;;;;;;16.88;76.46;99415.88;4853222;29;20583;-89
2021/08/20 01:56:34;;;;;;;5.30;4.53;;;;;;;16.87;76.59;99417.75;4868802;29;20308;-88
2021/08/20 01:59:09;;;;;;;4.40;4.00;;;;;;;16.84;76.85;99418.31;4883896;29;20246;-88
2021/08/20 02:01:36;;;;;;;4.87;4.13;;;;;;;16.81;77.04;99416.09;4884003;29;20235;-88
2021/08/20 02:04:04;;;;;;;5.03;4.60;;;;;;;16.84;77.13;99417.50;4868190;29;20266;-87
2021/08/20 02:06:33;;;;;;;5.10;4.70;;;;;;;16.80;76.93;99409.06;4853806;29;20284;-89
2021/08/20 02:09:02;;;;;;;5.47;3.87;;;;;;;16.76;77.41;99413.38;4868796;29;20239;-88
2021/08/20 02:11:31;;;;;;;5.17;4.20;;;;;;;16.72;77.54;99406.88;4884068;29;20247;-89
2021/08/20 02:13:58;;;;;;;5.73;4.60;;;;;;;16.71;77.29;99411.47;4883667;29;20611;-89
2021/08/20 02:16:27;;;;;;;4.93;4.43;;;;;;;16.59;77.39;99391.13;4883684;29;20529;-89
2021/08/20 02:18:55;;;;;;;4.90;4.07;;;;;;;16.67;77.61;99404.97;4883722;29;20235;-88
2021/08/20 02:21:25;;;;;;;7.63;3.83;;;;;;;16.70;77.52;99412.53;4883846;29;20231;-88
2021/08/20 02:23:54;;;;;;;5.00;4.50;;;;;;;16.70;77.41;99414.47;4883635;29;20660;-88
2021/08/20 02:26:24;;;;;;;4.70;4.30;;;;;;;16.67;77.37;99409.56;4883329;29;20644;-89
2021/08/20 02:28:52;;;;;;;5.03;4.53;;;;;;;16.72;77.21;99413.09;4868535;29;20284;-88
2021/08/20 02:31:20;;;;;;;5.00;4.50;;;;;;;16.76;77.05;99407.97;4868518;29;20636;-89
2021/08/20 02:33:49;;;;;;;4.27;3.90;;;;;;;16.82;77.12;99416.91;4868245;29;20251;-88
2021/08/20 02:36:19;;;;;;;4.53;3.90;;;;;;;16.78;76.84;99405.81;4868520;29;20310;-88
2021/08/20 02:38:46;;;;;;;4.27;3.87;;;;;;;16.74;76.78;99391.22;4867853;29;20239;-88
2021/08/20 02:41:13;;;;;;;5.03;4.53;;;;;;;16.79;76.58;99406.63;4867736;29;20232;-89
2021/08/20 02:43:44;;;;;;;5.03;4.20;;;;;;;16.82;76.88;99409.63;4868641;29;20239;-87
2021/08/20 02:46:11;;;;;;;4.83;4.30;;;;;;;16.85;76.62;99411.78;4897932;29;20235;-89
2021/08/20 02:48:38;;;;;;;4.50;4.00;;;;;;;16.88;76.69;99422.09;4868023;29;20322;-88
2021/08/20 02:51:10;;;;;;;5.17;4.20;;;;;;;16.84;76.64;99407.47;4868544;29;20239;-88
2021/08/20 02:53:37;;;;;;;5.03;4.50;;;;;;;16.83;76.97;99410.44;4883352;29;20236;-88
2021/08/20 02:56:04;;;;;;;5.33;3.97;;;;;;;16.85;76.91;99419.09;4867540;29;20239;-89
2021/08/20 02:58:54;;;;;;;4.40;4.00;;;;;;;16.75;77.11;99419.06;4883118;29;20251;-89
2021/08/20 03:01:21;;;;;;;4.77;4.37;;;;;;;16.71;77.33;99419.59;4867587;29;20239;-88
2021/08/20 03:03:49;;;;;;;5.07;4.10;;;;;;;16.60;77.31;99409.81;4883155;29;20243;-88
2021/08/20 03:06:20;;;;;;;4.60;4.20;;;;;;;16.54;77.89;99410.84;4867642;29;20652;-89
2021/08/20 03:08:47;;;;;;;4.40;4.00;;;;;;;16.52;77.78;99406.75;4882880;29;20245;-89
2021/08/20 03:11:17;;;;;;;4.33;3.93;;;;;;;16.52;77.80;99414.88;4882876;29;20235;-88
2021/08/20 03:13:44;;;;;;;4.73;4.20;;;;;;;16.44;78.22;99418.06;4898217;29;20231;-88
2021/08/20 03:16:11;;;;;;;4.77;4.30;;;;;;;16.43;78.43;99424.56;4867148;29;20234;-88
2021/08/20 03:18:39;;;;;;;6.07;4.43;;;;;;;16.32;78.72;99414.78;4883180;29;20228;-89
2021/08/20 03:21:14;;;;;;;4.53;4.13;;;;;;;16.31;78.55;99416.66;4884002;29;20250;-88
2021/08/20 03:23:49;;;;;;;4.77;4.10;;;;;;;16.26;78.50;99408.53;4882780;29;20246;-89
2021/08/20 03:26:18;;;;;;;4.70;4.30;;;;;;;16.23;78.56;99414.47;4882333;29;20264;-89
2021/08/20 03:28:56;;;;;;;4.53;4.13;;;;;;;16.20;78.71;99417.66;4870127;29;20231;-90
2021/08/20 03:31:23;;;;;;;4.60;4.20;;;;;;;16.20;78.65;99415.78;4882496;29;20232;-88
2021/08/20 03:33:51;;;;;;;4.53;4.17;;;;;;;16.15;78.50;99426.56;4852198;29;20649;-89
2021/08/20 03:36:22;;;;;;;5.27;3.97;;;;;;;16.12;78.74;99424.38;4882100;29;20723;-89
2021/08/20 03:38:52;;;;;;;7.70;4.17;;;;;;;15.99;78.69;99419.44;4867457;29;20242;-89
2021/08/20 03:41:21;;;;;;;5.77;4.50;;;;;;;15.98;78.65;99427.78;4867345;29;20666;-89
2021/08/20 03:44:01;;;;;;;4.50;4.10;;;;;;;15.88;78.92;99414.22;4881955;29;20245;-87
2021/08/20 03:46:31;;;;;;;4.50;4.10;;;;;;;15.81;79.27;99407.16;4882133;29;20233;-87
2021/08/20 03:48:58;;;;;;;4.63;4.23;;;;;;;15.76;79.17;99403.59;4866829;29;20246;-89
2021/08/20 03:51:27;;;;;;;4.83;4.43;;;;;;;15.69;79.79;99411.09;4882115;29;20242;-88
2021/08/20 03:53:54;;;;;;;4.60;4.13;;;;;;;15.64;79.88;99411.88;4866886;29;20234;-89
2021/08/20 03:56:21;;;;;;;5.17;4.60;;;;;;;15.56;79.93;99411.53;4866271;29;20310;-88
2021/08/20 03:59:03;;;;;;;4.80;4.40;;;;;;;15.55;80.12;99418.00;4868394;29;20647;-89
2021/08/20 04:01:30;;;;;;;5.33;4.83;;;;;;;15.53;80.52;99426.38;4881807;29;20240;-89
2021/08/20 04:04:00;;;;;;;5.73;4.60;;;;;;;15.56;80.39;99430.44;4866852;29;20263;-89
2021/08/20 04:06:55;;;;;;;5.27;4.83;;;;;;;15.50;79.92;99432.22;4866560;29;20250;-87
2021/08/20 04:09:26;;;;;;;6.10;4.70;;;;;;;15.56;80.00;99442.03;4881392;29;20232;-88
2021/08/20 04:11:55;;;;;;;5.33;4.83;;;;;;;15.37;80.06;99411.88;4881989;29;20243;-90
2021/08/20 04:14:48;;;;;;;5.77;4.97;;;;;;;15.55;80.21;99443.13;4889279;29;20231;-89
2021/08/20 04:17:15;;;;;;;5.70;5.07;;;;;;;15.58;80.34;99442.63;4881898;29;20230;-88
2021/08/20 04:19:42;;;;;;;5.27;4.67;;;;;;;15.60;80.46;99437.75;4866473;29;20250;-89
2021/08/20 04:22:10;;;;;;;4.80;4.40;;;;;;;15.62;80.40;99442.91;4866488;29;20275;-89
2021/08/20 04:24:41;;;;;;;5.60;4.87;;;;;;;15.69;79.91;99448.91;4866484;29;20240;-89
2021/08/20 04:27:36;;;;;;;5.47;4.50;;;;;;;15.69;79.98;99446.19;4869735;29;20236;-89
2021/08/20 04:30:23;;;;;;;9.90;5.40;;;;;;;15.75;79.83;99448.69;4880863;29;20257;-89
2021/08/20 04:32:54;;;;;;;5.67;4.60;;;;;;;15.79;79.93;99454.41;4866811;29;20235;-89
2021/08/20 04:35:50;;;;;;;5.70;4.70;;;;;;;15.89;79.69;99450.97;4881725;29;20238;-89
2021/08/20 04:38:28;;;;;;;7.50;4.60;;;;;;;15.94;79.90;99451.81;4895540;29;20651;-89
2021/08/20 04:41:10;;;;;;;5.17;4.73;;;;;;;16.13;79.31;99460.34;4881585;29;20738;-89
2021/08/20 04:44:09;;;;;;;5.20;4.67;;;;;;;16.18;78.63;99460.38;4841996;29;20529;-89
2021/08/20 04:46:45;;;;;;;5.07;4.57;;;;;;;16.28;78.70;99458.53;4881888;29;20245;-88
2021/08/20 04:49:31;;;;;;;5.57;4.83;;;;;;;16.42;78.19;99461.63;4881860;29;20307;-89
2021/08/20 04:52:35;;;;;;;5.63;5.13;;;;;;;16.56;77.90;99454.63;4814551;29;20270;-89
2021/08/20 04:55:20;;;;;;;6.77;6.17;;;;;;;16.81;77.18;99478.34;4862726;29;20699;-86
2021/08/20 04:57:47;;;;;;;5.97;5.37;;;;;;;16.89;77.05;99460.78;4881491;29;20666;-89
2021/08/20 05:00:14;;;;;;;5.43;4.90;;;;;;;17.03;76.31;99461.94;4896300;29;20302;-89
2021/08/20 05:02:41;;;;;;;5.03;4.63;;;;;;;17.21;75.75;99474.97;4881212;29;20232;-89
2021/08/20 05:05:13;;;;;;;5.03;4.57;;;;;;;17.28;75.29;99461.19;4866496;29;20283;-87
2021/08/20 05:07:40;;;;;;;5.10;4.60;;;;;;;17.46;74.45;99471.50;4865489;29;20259;-87
2021/08/20 05:10:10;;;;;;;4.90;4.43;;;;;;;17.66;73.97;99482.41;4881348;29;20632;-88
2021/08/20 05:12:38;;;;;;;4.27;3.87;;;;;;;17.78;73.03;99482.13;4880688;29;20231;-89
2021/08/20 05:15:06;;;;;;;4.13;3.73;;;;;;;17.90;72.58;99472.69;4881192;29;20239;-88
2021/08/20 05:17:33;;;;;;;6.27;4.17;;;;;;;18.02;71.70;99480.53;4880720;29;20711;-88
2021/08/20 05:20:00;;;;;;;5.67;4.13;;;;;;;18.13;71.44;99470.50;4864988;29;20295;-88
2021/08/20 05:22:41;;;;;;;8.63;3.87;;;;;;;18.30;70.64;99474.53;4864951;29;20311;-87
2021/08/20 05:25:12;;;;;;;4.10;3.70;;;;;;;18.46;69.79;99465.28;4880681;29;20235;-86
2021/08/20 05:27:39;;;;;;;3.80;3.50;;;;;;;18.63;69.31;99475.03;4849868;29;20644;-87
2021/08/20 05:30:06;;;;;;;4.83;4.10;;;;;;;18.69;68.37;99463.91;4865007;29;20239;-88
2021/08/20 05:32:33;;;;;;;4.23;3.83;;;;;;;18.94;68.08;99476.56;4880551;29;20307;-88
2021/08/20 05:34:59;;;;;;;5.43;4.27;;;;;;;19.02;67.74;99481.41;4865098;29;20239;-86
2021/08/20 05:37:26;;;;;;;4.70;3.73;;;;;;;19.23;66.80;99484.84;4896271;29;20236;-88
2021/08/20 05:39:53;;;;;;;4.13;3.73;;;;;;;19.31;66.43;99471.50;4865091;29;20258;-86
2021/08/20 05:42:20;;;;;;;8.17;4.20;;;;;;;19.45;65.91;99476.34;4864401;29;20232;-87
2021/08/20 05:44:47;;;;;;;4.43;4.03;;;;;;;19.58;65.71;99490.13;4865166;29;20228;-88
2021/08/20 05:47:14;;;;;;;4.60;4.17;;;;;;;19.70;64.92;99482.41;4879924;29;20325;-85
2021/08/20 05:49:41;;;;;;;4.67;4.20;;;;;;;19.84;64.46;99490.72;4880351;29;20244;-87
2021/08/20 05:52:08;;;;;;;4.47;4.03;;;;;;;19.89;64.14;99471.66;4879882;29;20243;-88
2021/08/20 05:54:35;;;;;;;4.70;4.00;;;;;;;20.02;64.12;99484.59;4880389;29;20532;-89
2021/08/20 05:57:02;;;;;;;5.47;4.20;;;;;;;20.18;63.64;99479.84;4895842;29;20255;-87
2021/08/20 05:59:29;;;;;;;4.33;3.77;;;;;;;20.36;63.38;99483.78;4880227;29;20565;-87
2021/08/20 06:01:56;;;;;;;4.70;3.97;;;;;;;20.41;62.66;99483.75;4880073;29;20255;-86
2021/08/20 06:04:23;;;;;;;4.17;3.77;;;;;;;20.42;63.22;99474.50;4879881;29;20254;-87
2021/08/20 06:06:50;;;;;;;4.13;3.83;;;;;;;20.62;62.46;99493.34;4864740;29;20347;-88
2021/08/20 06:09:17;;;;;;;4.13;3.60;;;;;;;20.65;61.91;99482.69;4864796;29;20638;-86
2021/08/20 06:11:44;;;;;;;4.63;3.80;;;;;;;20.83;61.50;99483.84;4865003;29;20251;-88
2021/08/20 06:14:10;;;;;;;4.20;3.80;;;;;;;20.92;60.80;99479.38;4879815;29;20259;-85
2021/08/20 06:16:37;;;;;;;3.70;3.40;;;;;;;21.00;60.95;99473.25;4895687;29;20322;-87
2021/08/20 06:19:04;;;;;;;3.50;3.20;;;;;;;21.17;60.85;99470.09;4895673;29;20720;-86
2021/08/20 06:21:31;;;;;;;4.20;3.70;;;;;;;21.41;59.87;99483.66;4864552;29;20266;-86
2021/08/20 06:23:57;;;;;;;4.43;3.60;;;;;;;21.54;59.63;99474.75;4895403;29;20257;-86
2021/08/20 06:26:24;;;;;;;5.03;3.60;;;;;;;21.84;58.91;99479.72;4879548;29;20241;-88
2021/08/20 06:28:51;;;;;;;5.53;4.00;;;;;;;21.99;58.40;99467.78;4880060;29;20241;-85
2021/08/20 06:31:19;;;;;;;5.40;3.70;;;;;;;22.18;58.14;99463.09;4864776;29;20266;-85
2021/08/20 06:33:46;;;;;;;3.90;3.50;;;;;;;22.49;57.30;99473.47;4883465;29;20241;-85
2021/08/20 06:36:13;;;;;;;4.53;3.67;;;;;;;22.66;56.25;99460.03;4883027;29;20242;-87
2021/08/20 06:38:40;;;;;;;5.70;3.47;;;;;;;22.89;55.61;99453.59;4864640;29;20722;-85
2021/08/20 06:41:07;;;;;;;4.23;3.83;;;;;;;23.31;54.16;99463.34;4860761;29;20537;-86
2021/08/20 06:43:33;;;;;;;4.63;3.43;;;;;;;23.39;54.57;99456.34;4872590;29;20228;-86
2021/08/20 06:46:00;;;;;;;3.97;3.40;;;;;;;23.62;53.27;99480.72;4864754;29;20271;-86
2021/08/20 06:48:27;;;;;;;5.07;3.80;;;;;;;23.69;53.44;99480.28;4861197;29;20240;-86
2021/08/20 06:50:53;;;;;;;3.93;3.53;;;;;;;23.70;54.27;99469.03;4882698;29;20315;-85
2021/08/20 06:53:20;;;;;;;4.03;3.60;;;;;;;23.73;54.15;99480.47;4882554;29;20244;-86
2021/08/20 06:55:47;;;;;;;3.90;3.50;;;;;;;23.66;53.88;99476.22;4863864;29;20714;-85
2021/08/20 06:58:14;;;;;;;4.10;3.57;;;;;;;23.67;53.46;99483.31;4878870;29;20292;-86
2021/08/20 07:00:41;;;;;;;5.63;3.47;;;;;;;23.71;53.25;99480.78;4848902;29;20631;-86
2021/08/20 07:03:08;;;;;;;4.23;3.40;;;;;;;23.75;53.34;99475.50;4858636;29;20630;-85
2021/08/20 07:05:35;;;;;;;3.42;3.00;;;;;;;23.71;53.27;99472.56;4897905;29;20742;-86
2021/08/20 07:08:06;;;;;;;3.50;3.20;;;;;;;23.77;53.17;99471.34;4897525;29;20318;-85
2021/08/20 07:10:33;;;;;;;4.63;3.25;;;;;;;23.86;53.49;99474.13;4867060;29;20235;-86
2021/08/20 07:13:00;;;;;;;3.63;3.33;;;;;;;23.89;53.31;99460.63;4892126;29;20237;-85
2021/08/20 07:15:27;;;;;;;3.70;3.40;;;;;;;23.98;53.54;99463.47;4863870;29;20300;-86
2021/08/20 07:17:54;;;;;;;4.25;3.13;;;;;;;24.03;53.52;99466.03;4833244;29;20501;-87
2021/08/20 07:20:21;;;;;;;3.60;3.30;;;;;;;24.11;52.26;99462.56;4863254;29;20609;-86
2021/08/20 07:22:47;;;;;;;4.15;3.42;;;;;;;24.21;52.50;99464.28;4834212;29;20228;-87
2021/08/20 07:25:15;;;;;;;4.65;3.53;;;;;;;24.31;50.59;99456.59;4881122;29;20314;-86
2021/08/20 07:27:41;;;;;;;3.60;3.30;;;;;;;24.41;50.38;99452.75;4881331;29;20227;-85
2021/08/20 07:30:09;;;;;;;4.13;3.30;;;;;;;24.56;49.92;99460.56;4866063;29;20636;-86
2021/08/20 07:32:36;;;;;;;6.97;3.67;;;;;;;24.73;49.56;99465.34;4881135;29;20627;-85
2021/08/20 07:35:03;;;;;;;4.10;3.42;;;;;;;24.79;49.50;99467.59;4881769;29;20296;-85
2021/08/20 07:37:30;;;;;;;3.88;3.30;;;;;;;24.77;49.39;99464.38;4881953;29;20238;-85
2021/08/20 07:39:57;;;;;;;3.55;3.25;;;;;;;24.77;49.75;99458.09;4881394;29;20251;-85
2021/08/20 07:42:24;;;;;;;3.67;3.38;;;;;;;25.04;49.36;99468.84;4881157;29;20238;-86
2021/08/20 07:44:50;;;;;;;3.67;3.30;;;;;;;25.17;48.27;99467.91;4865272;29;20273;-86
2021/08/20 07:47:17;;;;;;;3.72;3.22;;;;;;;25.28;47.81;99473.91;4862344;29;20295;-86
2021/08/20 07:49:44;;;;;;;4.15;3.47;;;;;;;25.35;47.85;99474.22;4847588;29;20671;-84
2021/08/20 07:52:11;;;;;;;3.58;3.28;;;;;;;25.63;47.92;99461.84;4862126;29;20242;-85
2021/08/20 07:54:38;;;;;;;6.50;3.55;;;;;;;25.85;47.17;99464.41;4847240;29;20526;-86
2021/08/20 07:57:05;;;;;;;4.85;3.80;;;;;;;26.09;46.03;99468.56;4869173;29;20233;-85
2021/08/20 07:59:32;;;;;;;3.50;3.20;;;;;;;26.36;45.40;99472.94;4865787;29;20243;-85
2021/08/20 08:01:59;;;;;;;3.60;3.28;;;;;;;26.58;45.12;99464.44;4864410;29;20244;-87
2021/08/20 08:04:26;;;;;;;3.67;3.10;;;;;;;26.99;42.95;99470.09;4850556;29;20238;-85
2021/08/20 08:06:53;;;;;;;3.67;3.38;;;;;;;27.51;42.13;99464.28;4859198;29;20230;-85
2021/08/20 08:09:19;;;;;;;3.75;3.40;;;;;;;28.00;41.19;99462.56;4879205;29;20233;-85
2021/08/20 08:11:46;;;;;;;3.42;3.13;;;;;;;28.53;40.39;99480.19;4863783;29;20294;-87
2021/08/20 08:14:13;;;;;;;3.63;3.17;;;;;;;28.85;39.53;99477.38;4878819;29;20657;-84
2021/08/20 08:16:41;;;;;;;3.65;3.30;;;;;;;29.29;38.92;99461.84;4865917;29;20243;-82
2021/08/20 08:19:08;;;;;;;4.90;3.28;;;;;;;29.42;39.03;99465.41;4865474;29;20611;-86
2021/08/20 08:21:36;;;;;;;3.92;3.20;;;;;;;29.79;38.86;99465.28;4858695;29;20236;-85
2021/08/20 08:24:03;;;;;;;3.92;3.20;;;;;;;30.17;37.08;99474.69;4877166;29;20706;-85
2021/08/20 08:26:30;;;;;;;3.97;3.20;;;;;;;30.32;36.91;99473.13;4847375;29;20597;-86
2021/08/20 08:28:57;;;;;;;3.22;2.92;;;;;;;30.26;36.48;99468.19;4862117;29;20270;-86
2021/08/20 08:31:24;;;;;;;4.10;2.60;;;;;;;30.26;37.14;99473.72;4846845;29;20316;-86
2021/08/20 08:33:51;;;;;;;3.17;2.90;;;;;;;30.58;36.51;99478.97;4846968;29;20240;-86
2021/08/20 08:36:19;;;;;;;3.50;3.20;;;;;;;30.69;35.86;99470.16;4846514;29;20259;-85
2021/08/20 08:38:46;;;;;;;4.07;3.10;;;;;;;30.82;35.48;99466.94;4862255;29;20256;-86
2021/08/20 08:41:13;;;;;;;4.38;3.30;;;;;;;30.97;35.34;99468.06;4846278;29;20665;-86
2021/08/20 08:43:40;;;;;;;4.20;3.17;;;;;;;31.24;34.87;99474.66;4845216;29;20579;-85
2021/08/20 08:46:12;;;;;;;5.47;3.63;;;;;;;31.11;34.84;99464.88;4860166;29;20244;-83
2021/08/20 08:48:40;;;;;;;3.42;3.13;;;;;;;31.29;34.87;99466.88;4858621;29;20243;-85
2021/08/20 08:51:09;;;;;;;4.22;3.20;;;;;;;31.40;34.88;99480.97;4858463;29;20332;-84
2021/08/20 08:53:37;;;;;;;4.07;3.30;;;;;;;31.41;34.84;99466.75;4858167;29;20847;-86
2021/08/20 08:56:04;;;;;;;3.83;3.00;;;;;;;31.49;33.98;99464.94;4842791;29;20241;-85
2021/08/20 08:58:31;;;;;;;3.65;3.35;;;;;;;31.48;35.16;99469.69;4859930;29;20236;-85
2021/08/20 09:00:58;;;;;;;4.07;3.50;;;;;;;31.48;34.04;99464.16;4860063;29;20232;-86
2021/08/20 09:03:27;;;;;;;3.97;3.63;;;;;;;31.69;34.39;99468.53;4860783;29;20236;-85
2021/08/20 09:05:55;;;;;;;4.45;3.10;;;;;;;31.79;34.00;99466.00;4861759;29;20645;-86
2021/08/20 09:08:23;;;;;;;3.92;3.53;;;;;;;31.67;33.58;99462.59;4871488;29;20296;-85
2021/08/20 09:10:54;;;;;;;3.88;3.58;;;;;;;31.69;33.68;99461.03;4861982;29;20290;-86
2021/08/20 09:13:27;;;;;;;4.07;3.60;;;;;;;31.66;34.19;99455.44;4877344;29;20528;-86
2021/08/20 09:16:07;;;;;;;5.07;3.50;;;;;;;31.47;34.15;99465.31;4861931;29;20289;-86
2021/08/20 09:18:34;;;;;;;3.80;3.28;;;;;;;31.64;34.09;99454.97;4844915;29;20292;-85
2021/08/20 09:21:01;;;;;;;4.13;3.10;;;;;;;31.57;34.30;99468.69;4846468;29;20284;-85
2021/08/20 09:23:28;;;;;;;4.95;3.50;;;;;;;31.24;34.67;99455.28;4877376;29;20239;-86
2021/08/20 09:25:56;;;;;;;5.10;3.47;;;;;;;30.88;35.38;99464.69;4861711;29;20539;-87
2021/08/20 09:28:26;;;;;;;4.25;3.40;;;;;;;30.80;35.39;99462.91;4861358;29;20240;-85
2021/08/20 09:30:59;;;;;;;4.78;3.40;;;;;;;30.29;36.69;99465.53;4876977;29;20323;-86
2021/08/20 09:33:32;;;;;;;5.45;3.30;;;;;;;29.93;37.70;99463.75;4877057;29;20259;-86
2021/08/20 09:36:04;;;;;;;4.75;3.70;;;;;;;29.48;37.64;99463.22;4876806;29;20232;-85
2021/08/20 09:38:35;;;;;;;3.90;3.50;;;;;;;29.45;38.08;99450.09;4861376;29;20247;-86
2021/08/20 09:41:05;;;;;;;3.97;3.20;;;;;;;29.26;38.88;99461.69;4886995;29;20308;-85
2021/08/20 09:43:34;;;;;;;3.70;3.30;;;;;;;29.10;38.63;99452.53;4862091;29;20276;-85
2021/08/20 09:46:09;;;;;;;4.43;3.42;;;;;;;28.91;40.16;99455.09;4860773;29;20316;-85
2021/08/20 09:48:47;;;;;;;3.97;3.17;;;;;;;28.84;39.11;99453.69;4878592;29;20643;-85
2021/08/20 09:51:39;;;;;;;3.60;2.90;;;;;;;28.82;40.39;99447.75;4895304;29;20276;-84
2021/08/20 09:54:11;;;;;;;3.58;3.28;;;;;;;28.88;39.73;99448.31;4879688;29;20292;-86
2021/08/20 09:56:56;;;;;;;3.78;2.88;;;;;;;28.73;40.70;99430.50;4880201;29;20640;-85
2021/08/20 09:59:27;;;;;;;2.80;2.60;;;;;;;28.49;42.33;99424.16;4867354;29;20240;-86
2021/08/20 10:01:55;;;;;;;5.00;3.25;;;;;;;28.80;41.82;99444.50;4891490;29;20282;-85
2021/08/20 10:04:23;;;;;;;5.40;3.00;;;;;;;28.96;40.57;99436.34;4876167;29;20239;-85
2021/08/20 10:06:50;;;;;;;3.30;2.60;;;;;;;28.97;39.88;99431.66;4865259;29;20579;-86
2021/08/20 10:09:20;;;;;;;2.70;2.50;;;;;;;28.91;39.14;99439.34;4883576;29;20227;-86
2021/08/20 10:11:48;;;;;;;4.20;2.28;;;;;;;29.08;38.43;99436.34;4868433;29;20239;-86
2021/08/20 10:14:15;;;;;;;2.75;2.55;;;;;;;29.16;37.89;99431.84;4867498;29;20239;-86
2021/08/20 10:16:42;;;;;;;2.55;2.35;;;;;;;29.20;37.42;99439.09;4864887;29;20267;-86
2021/08/20 10:19:10;;;;;;;2.63;2.42;;;;;;;29.08;37.49;99428.06;4864848;29;20240;-85
2021/08/20 10:21:39;;;;;;;3.15;2.70;;;;;;;29.08;37.87;99424.50;4864883;29;20246;-85
2021/08/20 10:24:08;;;;;;;2.78;2.50;;;;;;;29.07;36.95;99420.16;4880013;29;20584;-85
2021/08/20 10:26:45;;;;;;;2.70;2.50;;;;;;;29.28;38.11;99429.06;4864773;29;20339;-86
2021/08/20 10:29:12;;;;;;;4.35;2.63;;;;;;;29.40;36.24;99431.00;4849242;29;20274;-85
2021/08/20 10:31:42;;;;;;;2.97;2.72;;;;;;;29.50;35.87;99430.53;4864673;29;20243;-88
2021/08/20 10:34:30;;;;;;;4.95;2.80;;;;;;;29.72;35.43;99419.75;4865836;29;20308;-87
2021/08/20 10:37:09;;;;;;;2.50;2.30;;;;;;;30.07;35.79;99435.72;4884421;29;20232;-84
2021/08/20 10:39:39;;;;;;;3.15;2.35;;;;;;;30.52;34.83;99416.00;4898697;29;20584;-86
2021/08/20 10:42:22;;;;;;;3.00;2.35;;;;;;;30.91;34.59;99428.81;4882706;29;20276;-84
2021/08/20 10:45:13;;;;;;;2.92;2.72;;;;;;;31.22;33.76;99430.72;4883050;29;20235;-85
2021/08/20 10:47:40;;;;;;;2.65;2.45;;;;;;;31.44;34.07;99429.25;4898275;29;20649;-86
2021/08/20 10:50:13;;;;;;;2.35;2.25;;;;;;;31.88;32.50;99424.22;4882482;29;20239;-84
2021/08/20 10:52:42;;;;;;;4.38;2.55;;;;;;;31.76;32.60;99419.66;4867725;29;20292;-86
2021/08/20 10:55:14;;;;;;;2.92;2.63;;;;;;;31.97;31.73;99418.44;4882866;29;20246;-85
2021/08/20 10:57:42;;;;;;;3.42;2.67;;;;;;;31.87;31.27;99417.06;4866627;29;20244;-85
2021/08/20 11:00:23;;;;;;;6.63;3.00;;;;;;;32.04;32.09;99413.06;4881096;29;20231;-85
2021/08/20 11:02:57;;;;;;;4.57;2.55;;;;;;;31.98;32.28;99417.28;4882841;29;20312;-84
2021/08/20 11:05:38;;;;;;;3.08;2.67;;;;;;;31.73;32.08;99398.22;4881267;29;20234;-86
2021/08/20 11:08:26;;;;;;;2.85;2.60;;;;;;;31.91;31.46;99406.88;4897316;29;20228;-85
2021/08/20 11:10:58;;;;;;;5.00;2.90;;;;;;;31.90;32.46;99402.50;4867394;29;20227;-84
2021/08/20 11:13:26;;;;;;;3.83;3.08;;;;;;;32.13;31.75;99411.69;4882879;29;20263;-85
2021/08/20 11:15:54;;;;;;;3.00;2.80;;;;;;;32.48;31.49;99394.84;4866968;29;20243;-85
2021/08/20 11:18:42;;;;;;;3.55;3.08;;;;;;;32.82;31.55;99406.91;4865811;29;20240;-86
2021/08/20 11:21:08;;;;;;;2.92;2.72;;;;;;;33.06;30.50;99400.94;4866654;29;20291;-86
2021/08/20 11:23:35;;;;;;;4.38;3.00;;;;;;;32.99;31.09;99389.72;4882518;29;20291;-85
2021/08/20 11:26:04;;;;;;;4.25;2.97;;;;;;;33.21;31.21;99407.53;4881690;29;20232;-86
2021/08/20 11:28:40;;;;;;;3.47;3.28;;;;;;;33.48;30.25;99392.41;4866649;29;20236;-85
2021/08/20 11:31:11;;;;;;;4.70;2.97;;;;;;;33.24;31.53;99398.44;4866724;29;20235;-86
2021/08/20 11:33:42;;;;;;;3.40;3.10;;;;;;;33.18;30.32;99391.59;4866795;29;20274;-86
2021/08/20 11:36:17;;;;;;;4.00;3.70;;;;;;;33.02;29.57;99400.09;4881793;29;20291;-86
2021/08/20 11:38:49;;;;;;;4.25;3.92;;;;;;;32.91;30.39;99390.81;4882448;29;20234;-85
2021/08/20 11:41:25;;;;;;;3.00;2.80;;;;;;;33.05;31.09;99388.22;4881904;29;20240;-86
2021/08/20 11:43:59;;;;;;;4.03;3.22;;;;;;;32.67;32.35;99389.25;4882239;29;20239;-85
2021/08/20 11:46:38;;;;;;;4.25;3.53;;;;;;;32.81;32.73;99393.41;4866174;29;20510;-85